Time;durP1;ratioP1;P1;durP2;ratioP2;P2;SDS_P1;SDS_P2;PMS_P1;PMS_P2;Temp;Humidity;BMP_temperature;BMP_pressure;BME280_temperature;BME280_humidity;BME280_pressure;Samples;Min_cycle;Max_cycle;Signal;HPM_P1;HPM_P2
2022/06/06 00:00:44;;;;;;;234.85;61.30;;;;;;;14.61;100.00;101215.84;5014679;28;20048;-66
2022/06/06 00:03:10;;;;;;;236.75;61.13;;;;;;;14.60;100.00;101206.03;5011574;28;20777;-67
2022/06/06 00:05:39;;;;;;;223.57;62.67;;;;;;;14.61;100.00;101212.25;5019886;28;20037;-67
2022/06/06 00:08:04;;;;;;;234.77;61.30;;;;;;;14.57;100.00;101221.53;5011022;28;20143;-67
2022/06/06 00:10:30;;;;;;;216.25;58.97;;;;;;;14.56;100.00;101225.16;5017286;28;20113;-67
2022/06/06 00:12:56;;;;;;;195.13;56.22;;;;;;;14.49;100.00;101228.31;5015797;28;20405;-67
2022/06/06 00:15:22;;;;;;;181.70;53.70;;;;;;;14.50;100.00;101218.44;5028135;28;20033;-67
2022/06/06 00:17:48;;;;;;;164.45;51.50;;;;;;;14.47;100.00;101226.69;5013581;28;20049;-67
2022/06/06 00:20:14;;;;;;;151.02;50.88;;;;;;;14.47;100.00;101216.84;5016616;28;20044;-68
2022/06/06 00:22:40;;;;;;;128.93;47.70;;;;;;;14.43;100.00;101217.16;5015850;28;20517;-67
2022/06/06 00:25:06;;;;;;;127.93;48.42;;;;;;;14.44;100.00;101214.34;5010359;28;20041;-67
2022/06/06 00:27:31;;;;;;;132.43;46.72;;;;;;;14.45;100.00;101215.19;4992373;28;20113;-68
2022/06/06 00:29:57;;;;;;;157.75;50.22;;;;;;;14.42;100.00;101205.56;5012994;28;20037;-66
2022/06/06 00:35:07;;;;;;;118.43;44.38;;;;;;;14.43;100.00;101219.84;5005571;28;20136;-67
2022/06/06 00:37:35;;;;;;;116.63;43.15;;;;;;;14.47;100.00;101215.97;5028965;28;20461;-66
2022/06/06 00:40:01;;;;;;;113.32;42.65;;;;;;;14.49;100.00;101228.31;5011401;28;20870;-67
2022/06/06 00:42:33;;;;;;;107.07;42.38;;;;;;;14.43;100.00;101218.00;5012521;28;20127;-67
2022/06/06 00:45:17;;;;;;;103.10;39.65;;;;;;;14.43;100.00;101219.84;5012274;28;20791;-67
2022/06/06 00:47:45;;;;;;;101.38;35.80;;;;;;;14.43;100.00;101209.94;5007288;28;20045;-66
2022/06/06 00:50:19;;;;;;;91.43;35.25;;;;;;;14.43;100.00;101214.47;4994317;28;20045;-67
2022/06/06 00:52:47;;;;;;;93.22;35.05;;;;;;;14.45;100.00;101220.56;5003044;28;20064;-67
2022/06/06 00:55:18;;;;;;;81.40;33.05;;;;;;;14.42;100.00;101221.66;5006532;28;20091;-67
2022/06/06 00:57:53;;;;;;;89.50;33.25;;;;;;;14.42;100.00;101228.84;5008332;28;20037;-67
2022/06/06 01:00:21;;;;;;;89.18;33.22;;;;;;;14.42;100.00;101223.50;5011732;28;20138;-67
2022/06/06 01:02:52;;;;;;;91.97;34.50;;;;;;;14.40;100.00;101230.78;5019448;28;20036;-67
2022/06/06 01:05:19;;;;;;;78.47;31.35;;;;;;;14.41;100.00;101228.00;5025668;28;20041;-67
2022/06/06 01:07:45;;;;;;;75.30;30.58;;;;;;;14.38;100.00;101222.84;5016258;28;20033;-67
2022/06/06 01:10:11;;;;;;;83.55;31.08;;;;;;;14.39;100.00;101226.38;5019067;28;20048;-67
2022/06/06 01:12:38;;;;;;;74.25;28.90;;;;;;;14.37;100.00;101223.81;4998050;28;20034;-67
2022/06/06 01:15:09;;;;;;;70.60;28.88;;;;;;;14.37;100.00;101228.34;5002629;28;20045;-67
2022/06/06 01:18:11;;;;;;;68.15;26.05;;;;;;;14.35;100.00;101227.56;5026658;28;20061;-67
2022/06/06 01:21:06;;;;;;;71.05;29.20;;;;;;;14.37;100.00;101231.88;4982690;28;20123;-67
2022/06/06 01:23:42;;;;;;;73.60;28.25;;;;;;;14.34;100.00;101231.22;4996090;28;20053;-67
2022/06/06 01:26:13;;;;;;;60.72;25.55;;;;;;;14.40;100.00;101234.31;5025343;28;20116;-67
2022/06/06 01:29:04;;;;;;;65.25;26.08;;;;;;;14.37;100.00;101233.72;5027646;28;20032;-67
2022/06/06 01:31:39;;;;;;;64.70;25.77;;;;;;;14.36;100.00;101232.00;5020411;28;20328;-67
2022/06/06 01:34:08;;;;;;;69.55;26.85;;;;;;;14.36;100.00;101230.16;5013922;28;20072;-67
2022/06/06 01:36:36;;;;;;;72.97;28.50;;;;;;;14.39;100.00;101239.81;5014551;28;20060;-67
2022/06/06 01:39:05;;;;;;;65.68;27.50;;;;;;;14.36;100.00;101235.53;5015497;28;20124;-67
2022/06/06 01:41:35;;;;;;;65.78;28.30;;;;;;;14.40;100.00;101244.19;5015729;28;20784;-67
2022/06/06 01:44:09;;;;;;;64.00;27.55;;;;;;;14.37;100.00;101239.06;5015378;28;20132;-66
2022/06/06 01:46:36;;;;;;;67.45;27.52;;;;;;;14.39;100.00;101240.66;5016109;28;20128;-67
2022/06/06 01:49:05;;;;;;;63.85;28.05;;;;;;;14.40;100.00;101237.00;5016524;28;20044;-66
2022/06/06 01:51:32;;;;;;;77.47;29.42;;;;;;;14.36;100.00;101232.00;5018089;28;20029;-67
2022/06/06 01:53:58;;;;;;;78.82;29.08;;;;;;;14.42;100.00;101229.72;5017060;28;20798;-67
2022/06/06 01:56:28;;;;;;;68.18;29.13;;;;;;;14.43;100.00;101234.09;5017721;28;20099;-66
2022/06/06 01:58:53;;;;;;;73.72;29.92;;;;;;;14.45;100.00;101233.97;5017865;28;20883;-67
2022/06/06 02:01:19;;;;;;;88.13;30.65;;;;;;;14.48;100.00;101234.66;4999614;28;20045;-67
2022/06/06 02:03:45;;;;;;;70.68;29.35;;;;;;;14.54;100.00;101229.81;5017805;28;20053;-67
2022/06/06 02:06:10;;;;;;;79.60;30.70;;;;;;;14.48;100.00;101237.34;5017133;28;20037;-67
2022/06/06 02:08:36;;;;;;;83.78;31.20;;;;;;;14.45;100.00;101229.47;5015767;28;20550;-67
2022/06/06 02:11:03;;;;;;;80.07;31.73;;;;;;;14.50;100.00;101229.16;5014008;28;20041;-67
2022/06/06 02:13:28;;;;;;;88.70;33.92;;;;;;;14.46;100.00;101224.97;5017469;28;20061;-67
2022/06/06 02:15:54;;;;;;;92.03;33.53;;;;;;;14.40;100.00;101218.22;5018043;28;20080;-67
2022/06/06 02:18:21;;;;;;;83.47;32.28;;;;;;;14.46;100.00;101217.78;5016985;28;20036;-67
2022/06/06 02:20:47;;;;;;;89.60;32.47;;;;;;;14.46;100.00;101212.41;5016135;28;20037;-67
2022/06/06 02:23:13;;;;;;;78.45;32.00;;;;;;;14.40;100.00;101220.03;5008918;28;20136;-67
2022/06/06 02:25:38;;;;;;;78.63;31.77;;;;;;;14.51;100.00;101225.53;5009083;28;20107;-68
2022/06/06 02:28:05;;;;;;;91.22;34.28;;;;;;;14.41;100.00;101211.91;5015565;28;20037;-67
2022/06/06 02:30:34;;;;;;;79.75;32.13;;;;;;;14.41;100.00;101214.59;5016406;28;20038;-67
2022/06/06 02:33:01;;;;;;;81.18;30.98;;;;;;;14.45;100.00;101213.38;5016378;28;20026;-67
2022/06/06 02:35:30;;;;;;;77.70;31.17;;;;;;;14.46;100.00;101208.88;5016100;28;20037;-68
2022/06/06 02:37:56;;;;;;;79.75;31.23;;;;;;;14.39;100.00;101212.97;5014049;28;20037;-68
2022/06/06 02:40:23;;;;;;;80.00;31.33;;;;;;;14.40;100.00;101210.16;5014984;28;20207;-67
2022/06/06 02:42:48;;;;;;;71.32;29.67;;;;;;;14.33;100.00;101205.38;5015459;28;20041;-68
2022/06/06 02:45:15;;;;;;;77.03;29.83;;;;;;;14.28;100.00;101203.03;5014297;28;20033;-68
2022/06/06 02:47:42;;;;;;;84.53;29.70;;;;;;;14.29;100.00;101211.94;5015277;28;20222;-67
2022/06/06 02:50:08;;;;;;;85.32;31.23;;;;;;;14.24;100.00;101209.59;5013854;28;20041;-68
2022/06/06 02:52:34;;;;;;;78.60;30.25;;;;;;;14.27;100.00;101209.38;5014300;28;20041;-68
2022/06/06 02:55:01;;;;;;;80.55;30.70;;;;;;;14.36;100.00;101202.47;5015152;28;20099;-68
2022/06/06 02:57:27;;;;;;;83.20;31.67;;;;;;;14.32;100.00;101203.69;5014565;28;20072;-68
2022/06/06 02:59:55;;;;;;;76.82;30.42;;;;;;;14.37;100.00;101201.50;5015582;28;20684;-68
2022/06/06 03:02:21;;;;;;;81.32;29.92;;;;;;;14.37;100.00;101201.50;5001449;28;20734;-68
2022/06/06 03:04:47;;;;;;;82.47;31.13;;;;;;;14.36;100.00;101203.34;5006536;28;20356;-68
2022/06/06 03:07:23;;;;;;;78.65;29.02;;;;;;;14.47;100.00;101207.91;5008534;28;20041;-68
2022/06/06 03:10:20;;;;;;;81.68;29.40;;;;;;;14.43;100.00;101198.38;5015396;28;20033;-68
2022/06/06 03:12:58;;;;;;;74.20;28.30;;;;;;;14.47;100.00;101202.53;5014615;28;20915;-68
2022/06/06 03:22:01;;;;;;;71.28;28.88;;;;;;;14.50;100.00;101197.81;4961963;28;20053;-67
2022/06/06 03:24:58;;;;;;;79.82;29.33;;;;;;;14.55;100.00;101191.25;4968576;28;20164;-66
2022/06/06 03:28:03;;;;;;;67.60;27.33;;;;;;;14.48;100.00;101191.72;4953988;28;20062;-66
2022/06/06 03:30:54;;;;;;;68.35;27.90;;;;;;;14.50;100.00;101200.50;4964596;28;20061;-67
2022/06/06 03:33:47;;;;;;;62.83;25.95;;;;;;;14.52;100.00;101199.56;4972849;28;20054;-67
2022/06/06 03:36:46;;;;;;;67.22;26.30;;;;;;;14.59;100.00;101200.78;4970465;28;20877;-66
2022/06/06 03:39:27;;;;;;;59.13;25.25;;;;;;;14.65;100.00;101198.50;4952495;28;20038;-68
2022/06/06 03:42:19;;;;;;;54.92;25.33;;;;;;;14.64;100.00;101202.16;4971749;28;20121;-67
2022/06/06 03:45:06;;;;;;;58.53;23.60;;;;;;;14.63;100.00;101195.09;4971479;28;20042;-67
2022/06/06 03:47:52;;;;;;;52.63;21.98;;;;;;;14.65;100.00;101209.25;4958506;28;20046;-67
2022/06/06 03:50:42;;;;;;;53.58;22.75;;;;;;;14.67;100.00;101201.94;4970222;28;20553;-67
2022/06/06 03:53:34;;;;;;;44.40;20.35;;;;;;;14.66;100.00;101202.03;4960389;28;20063;-67
2022/06/06 03:56:33;;;;;;;45.78;19.67;;;;;;;14.69;100.00;101207.19;4964196;28;20065;-67
2022/06/06 03:58:59;;;;;;;44.60;19.77;;;;;;;14.71;100.00;101210.63;5012577;28;20041;-67
2022/06/06 04:01:25;;;;;;;38.47;17.58;;;;;;;14.65;100.00;101211.91;5013090;28;20688;-67
2022/06/06 04:03:53;;;;;;;41.72;18.95;;;;;;;14.64;100.00;101214.72;4994486;28;20134;-67
2022/06/06 04:06:19;;;;;;;44.50;18.85;;;;;;;14.56;100.00;101217.13;5013234;28;20048;-67
2022/06/06 04:08:45;;;;;;;42.65;17.17;;;;;;;14.55;100.00;101215.41;5013263;28;20029;-67
2022/06/06 04:11:32;;;;;;;47.38;19.90;;;;;;;14.50;100.00;101221.97;5013106;28;20753;-67
2022/06/06 04:14:29;;;;;;;45.15;18.73;;;;;;;14.44;100.00;101214.34;5013245;28;20053;-67
2022/06/06 04:17:22;;;;;;;36.15;17.75;;;;;;;14.40;100.00;101218.22;5013513;28;20056;-67
2022/06/06 04:20:12;;;;;;;42.55;18.10;;;;;;;14.48;100.00;101217.69;5006523;28;20140;-67
2022/06/06 04:23:00;;;;;;;48.80;20.30;;;;;;;14.41;100.00;101219.94;5013048;28;20087;-67
2022/06/06 04:25:44;;;;;;;49.95;18.85;;;;;;;14.52;100.00;101221.88;5013565;28;20454;-66
2022/06/06 04:28:29;;;;;;;48.75;20.27;;;;;;;14.50;100.00;101229.16;5012545;28;20292;-67
2022/06/06 04:31:25;;;;;;;59.42;23.95;;;;;;;14.45;100.00;101226.78;4995509;28;20107;-67
2022/06/06 04:34:21;;;;;;;75.55;27.50;;;;;;;14.46;100.00;101233.03;5002822;28;20456;-67
2022/06/06 04:36:54;;;;;;;81.20;30.08;;;;;;;14.45;100.00;101239.34;5014284;28;20056;-67
2022/06/06 04:39:32;;;;;;;103.00;37.42;;;;;;;14.45;100.00;101228.63;5016274;28;20052;-67
2022/06/06 04:42:13;;;;;;;106.13;40.10;;;;;;;14.46;100.00;101239.25;4997336;28;20855;-67
2022/06/06 04:44:57;;;;;;;108.03;40.40;;;;;;;14.47;100.00;101237.44;5012963;28;20041;-67
2022/06/06 04:47:33;;;;;;;95.85;41.58;;;;;;;14.51;100.00;101236.28;5012671;28;20042;-66
2022/06/06 04:50:04;;;;;;;98.35;39.75;;;;;;;14.59;100.00;101233.00;5010741;28;20813;-67
2022/06/06 04:52:30;;;;;;;91.45;37.75;;;;;;;14.61;100.00;101237.31;5017377;28;20049;-66
2022/06/06 04:54:56;;;;;;;97.40;41.22;;;;;;;14.57;100.00;101238.50;5005971;28;20593;-67
2022/06/06 04:57:24;;;;;;;93.97;38.97;;;;;;;14.69;100.00;101239.41;5013951;28;20041;-67
2022/06/06 04:59:51;;;;;;;86.57;37.97;;;;;;;14.72;100.00;101245.41;5016968;28;20053;-67
2022/06/06 05:02:19;;;;;;;87.38;36.42;;;;;;;14.74;100.00;101242.59;5015868;28;20037;-66
2022/06/06 05:04:44;;;;;;;77.60;35.58;;;;;;;14.79;100.00;101250.31;5016598;28;20041;-67
2022/06/06 05:07:25;;;;;;;76.72;35.03;;;;;;;14.89;100.00;101251.34;5016680;28;20049;-67
2022/06/06 05:09:53;;;;;;;76.75;37.15;;;;;;;14.83;100.00;101255.34;5016445;28;20060;-67
2022/06/06 05:12:54;;;;;;;81.00;36.47;;;;;;;14.89;100.00;101249.50;5014946;28;20056;-66
2022/06/06 05:15:56;;;;;;;79.00;34.70;;;;;;;15.11;100.00;101259.50;5015395;28;20048;-67
2022/06/06 05:18:36;;;;;;;73.38;35.40;;;;;;;15.23;100.00;101258.56;5003560;28;20148;-67
2022/06/06 05:21:10;;;;;;;90.90;37.97;;;;;;;15.21;100.00;101256.94;5014798;28;20030;-67
2022/06/06 05:24:01;;;;;;;72.25;35.80;;;;;;;15.16;100.00;101270.75;5016048;28;20840;-67
2022/06/06 05:26:35;;;;;;;79.18;36.45;;;;;;;15.11;100.00;101264.88;4998998;28;20033;-67
2022/06/06 05:29:04;;;;;;;74.45;37.95;;;;;;;15.06;100.00;101259.00;5015603;28;20029;-66
2022/06/06 05:31:56;;;;;;;75.80;36.90;;;;;;;15.00;100.00;101265.66;5014708;28;20041;-67
2022/06/06 05:34:39;;;;;;;70.22;34.20;;;;;;;14.92;100.00;101273.47;5015881;28;20125;-67
2022/06/06 05:37:15;;;;;;;60.67;31.60;;;;;;;14.92;100.00;101284.19;5015729;28;20053;-66
2022/06/06 05:40:01;;;;;;;66.82;32.88;;;;;;;14.84;100.00;101270.47;5017103;28;20832;-67
2022/06/06 05:43:04;;;;;;;61.22;31.40;;;;;;;15.18;100.00;101268.81;5017061;28;20034;-67
2022/06/06 05:45:49;;;;;;;56.97;30.95;;;;;;;14.92;97.85;101268.09;5017075;28;20807;-67
2022/06/06 05:48:39;;;;;;;53.83;29.73;;;;;;;15.15;98.45;101281.59;5015874;28;20037;-67
2022/06/06 05:51:37;;;;;;;56.58;29.08;;;;;;;15.11;96.96;101286.38;5004544;28;20045;-67
2022/06/06 05:54:36;;;;;;;55.72;29.92;;;;;;;15.05;96.01;101281.44;5017026;28;20771;-68
2022/06/06 05:57:07;;;;;;;55.35;29.73;;;;;;;15.31;96.77;101283.97;5013880;28;20054;-67
2022/06/06 05:59:59;;;;;;;52.50;30.52;;;;;;;15.56;95.70;101278.44;5005418;28;20038;-67
2022/06/06 06:03:02;;;;;;;52.50;31.55;;;;;;;15.53;94.38;101268.78;5016510;28;20425;-67
2022/06/06 06:05:43;;;;;;;56.83;33.15;;;;;;;15.78;92.65;101278.53;5015906;28;20037;-67
2022/06/06 06:08:50;;;;;;;56.15;32.42;;;;;;;15.83;92.92;101269.25;5014028;28;20128;-67
2022/06/06 06:11:28;;;;;;;57.45;33.00;;;;;;;16.28;90.48;101275.50;5006192;28;20049;-67
2022/06/06 06:13:59;;;;;;;51.03;31.58;;;;;;;17.11;85.00;101268.69;5015423;28;20733;-68
2022/06/06 06:16:29;;;;;;;48.67;27.23;;;;;;;16.79;86.62;101277.63;5015658;28;20037;-67
2022/06/06 06:19:04;;;;;;;43.88;27.92;;;;;;;17.00;84.29;101278.53;5014371;28;20619;-68
2022/06/06 06:21:33;;;;;;;39.85;24.80;;;;;;;16.88;84.48;101292.19;5014731;28;20775;-68
2022/06/06 06:24:08;;;;;;;39.33;24.33;;;;;;;17.38;83.36;101289.78;5014989;28;20037;-68
2022/06/06 06:26:35;;;;;;;34.95;22.80;;;;;;;17.18;82.12;101295.03;5015058;28;20039;-69
2022/06/06 06:29:04;;;;;;;34.47;23.02;;;;;;;16.93;83.29;101304.28;4991370;28;20034;-67
2022/06/06 06:31:57;;;;;;;39.00;23.10;;;;;;;16.94;83.68;101306.00;5014459;28;20041;-67
2022/06/06 06:34:30;;;;;;;39.42;21.92;;;;;;;16.80;84.59;101307.13;5009778;28;20045;-67
2022/06/06 06:37:14;;;;;;;34.33;21.98;;;;;;;16.76;85.00;101308.34;5013754;28;20494;-67
2022/06/06 06:39:58;;;;;;;36.63;22.00;;;;;;;16.64;85.04;101309.34;5014702;28;20107;-67
2022/06/06 06:42:40;;;;;;;30.95;19.80;;;;;;;16.68;83.02;101307.25;5014429;28;20044;-67
2022/06/06 06:45:15;;;;;;;28.67;19.83;;;;;;;16.54;82.60;101311.06;5013278;28;20076;-67
2022/06/06 06:47:49;;;;;;;29.52;18.77;;;;;;;16.69;81.36;101325.13;5011340;28;20030;-68
2022/06/06 06:50:35;;;;;;;32.42;19.13;;;;;;;17.20;79.75;101321.84;5005158;28;20045;-64
2022/06/06 06:53:22;;;;;;;28.20;19.27;;;;;;;16.20;82.84;101327.22;5017930;28;20049;-67
2022/06/06 06:56:13;;;;;;;24.42;18.33;;;;;;;16.73;80.62;101321.25;5015586;28;20853;-66
2022/06/06 06:58:52;;;;;;;26.67;17.17;;;;;;;17.72;79.65;101325.50;5010003;28;20037;-67
2022/06/06 07:01:32;;;;;;;25.77;16.05;;;;;;;16.74;79.48;101322.94;5010500;28;20042;-67
2022/06/06 07:10:10;;;;;;;24.02;14.20;;;;;;;18.58;72.51;101314.34;4938087;28;20047;-67
2022/06/06 07:13:01;;;;;;;20.13;15.20;;;;;;;19.25;72.37;101326.28;4952817;28;20070;-66
2022/06/06 07:16:03;;;;;;;21.17;14.05;;;;;;;19.41;70.03;101325.72;4952023;28;20046;-67
2022/06/06 07:18:32;;;;;;;20.92;13.13;;;;;;;18.74;70.16;101327.34;4952475;28;20081;-67
2022/06/06 07:21:01;;;;;;;16.52;10.75;;;;;;;18.65;70.20;101325.44;4962452;28;20034;-67
2022/06/06 07:23:31;;;;;;;18.10;11.27;;;;;;;17.78;73.91;101330.44;4946403;28;20105;-67
2022/06/06 07:25:59;;;;;;;17.45;13.02;;;;;;;17.78;74.40;101333.13;4967401;28;20058;-66
2022/06/06 07:28:24;;;;;;;25.08;14.85;;;;;;;17.76;74.40;101330.53;4963178;28;20057;-67
2022/06/06 07:30:50;;;;;;;22.73;14.00;;;;;;;17.76;74.79;101337.78;4963550;28;20050;-67
2022/06/06 07:33:37;;;;;;;17.27;12.57;;;;;;;17.60;74.32;101335.50;4970395;28;20038;-66
2022/06/06 07:36:05;;;;;;;18.20;13.20;;;;;;;17.51;74.38;101341.66;4966244;28;20278;-67
2022/06/06 07:38:43;;;;;;;15.68;12.57;;;;;;;17.82;72.45;101335.44;4950068;28;20561;-67
2022/06/06 07:41:23;;;;;;;17.13;11.95;;;;;;;18.91;71.91;101331.22;4949090;28;20192;-67
2022/06/06 07:43:55;;;;;;;13.48;10.98;;;;;;;18.81;68.88;101323.06;4969694;28;20925;-67
2022/06/06 07:46:23;;;;;;;10.88;9.60;;;;;;;19.63;68.63;101335.44;4993545;28;20144;-66
2022/06/06 07:49:03;;;;;;;12.07;8.65;;;;;;;18.99;66.98;101327.81;5011427;28;20140;-68
2022/06/06 07:51:51;;;;;;;9.68;7.20;;;;;;;19.71;65.43;101334.69;5003504;28;20529;-68
2022/06/06 07:54:29;;;;;;;10.02;7.47;;;;;;;18.23;67.50;101335.50;5010976;28;20873;-68
2022/06/06 07:57:11;;;;;;;8.25;6.95;;;;;;;19.89;64.46;101332.97;5010806;28;20049;-68
2022/06/06 07:59:37;;;;;;;9.30;7.90;;;;;;;18.79;66.08;101329.63;5009562;28;20403;-67
2022/06/06 08:02:24;;;;;;;10.60;7.32;;;;;;;18.44;67.74;101324.66;5009387;28;20148;-67
2022/06/06 08:05:08;;;;;;;10.52;7.50;;;;;;;19.47;64.23;101324.28;5006985;28;20812;-68
2022/06/06 08:07:47;;;;;;;7.95;6.13;;;;;;;19.55;63.13;101324.44;5010035;28;20887;-68
2022/06/06 08:10:43;;;;;;;7.13;5.47;;;;;;;20.70;62.37;101317.00;5008371;28;20064;-68
2022/06/06 08:13:36;;;;;;;7.80;5.22;;;;;;;20.65;62.70;101317.44;5013244;28;20076;-67
2022/06/06 08:16:29;;;;;;;6.90;5.25;;;;;;;20.25;61.60;101317.75;4980920;28;20568;-66
2022/06/06 08:19:19;;;;;;;9.35;5.53;;;;;;;20.61;60.17;101324.16;5013290;28;20506;-67
2022/06/06 08:21:47;;;;;;;9.75;6.97;;;;;;;19.81;61.17;101335.53;5009013;28;20767;-66
2022/06/06 08:24:24;;;;;;;8.98;6.97;;;;;;;20.98;60.28;101325.94;5003342;28;20048;-66
2022/06/06 08:26:51;;;;;;;10.70;7.85;;;;;;;19.78;60.64;101336.69;5016880;28;20036;-67
2022/06/06 08:29:18;;;;;;;11.23;8.52;;;;;;;19.52;61.90;101332.81;5017988;28;20120;-67
2022/06/06 08:31:44;;;;;;;11.32;8.57;;;;;;;19.71;62.97;101340.09;5022822;28;20025;-67
2022/06/06 08:34:09;;;;;;;12.02;9.07;;;;;;;18.64;63.98;101331.84;5018018;28;20037;-67
2022/06/06 08:36:53;;;;;;;9.55;8.63;;;;;;;19.11;64.19;101337.50;5012592;28;20044;-67
2022/06/06 08:39:37;;;;;;;12.07;8.20;;;;;;;18.53;66.04;101335.50;5012085;28;20791;-66
2022/06/06 08:42:30;;;;;;;9.40;7.82;;;;;;;19.17;63.39;101341.50;5011674;28;20053;-67
2022/06/06 08:45:30;;;;;;;9.32;7.97;;;;;;;20.09;63.95;101326.50;5012278;28;20570;-66
2022/06/06 08:48:02;;;;;;;9.35;5.95;;;;;;;19.90;62.11;101330.09;5009306;28;20145;-67
2022/06/06 08:50:44;;;;;;;5.68;5.00;;;;;;;20.05;58.55;101324.22;5012837;28;20061;-66
2022/06/06 08:53:19;;;;;;;6.63;5.35;;;;;;;20.07;60.31;101328.47;5012243;28;20067;-68
2022/06/06 08:56:22;;;;;;;6.18;5.57;;;;;;;20.17;59.42;101332.00;5010575;28;20569;-68
2022/06/06 08:59:29;;;;;;;4.97;4.38;;;;;;;20.26;59.12;101329.44;5017269;28;20071;-67
2022/06/06 09:02:19;;;;;;;6.28;4.65;;;;;;;20.88;59.23;101331.44;4932405;28;20147;-66
2022/06/06 09:05:00;;;;;;;5.00;4.60;;;;;;;20.43;58.22;101328.63;4934599;28;20174;-65
2022/06/06 09:07:34;;;;;;;10.77;5.10;;;;;;;20.51;59.61;101326.06;4922641;28;20074;-66
2022/06/06 09:10:24;;;;;;;4.63;4.07;;;;;;;20.16;57.09;101324.91;4919914;29;20814;-68
2022/06/06 09:13:18;;;;;;;5.70;3.65;;;;;;;20.31;62.09;101325.28;4931085;28;20051;-67
2022/06/06 09:16:05;;;;;;;5.00;3.63;;;;;;;19.75;58.44;101330.72;4930186;28;20042;-68
2022/06/06 09:18:42;;;;;;;3.08;2.88;;;;;;;19.82;59.70;101331.81;4931551;29;20210;-68
2022/06/06 09:21:18;;;;;;;5.07;2.85;;;;;;;19.97;57.03;101329.50;4930499;28;20085;-67
2022/06/06 09:24:21;;;;;;;4.20;3.70;;;;;;;20.43;58.25;101329.50;4930085;28;20148;-66
2022/06/06 09:27:10;;;;;;;3.45;3.25;;;;;;;20.54;56.94;101328.50;4931840;28;20047;-66
2022/06/06 09:30:06;;;;;;;5.90;3.35;;;;;;;21.06;55.86;101314.34;4932121;28;20047;-67
2022/06/06 09:32:56;;;;;;;3.72;3.35;;;;;;;20.20;55.18;101328.16;4931233;28;20086;-68
2022/06/06 09:35:37;;;;;;;5.65;3.65;;;;;;;20.20;57.16;101317.34;4931962;29;20043;-67
2022/06/06 09:38:23;;;;;;;3.70;3.37;;;;;;;20.15;57.72;101319.63;4945211;28;20058;-67
2022/06/06 09:41:15;;;;;;;3.03;2.58;;;;;;;20.18;57.28;101324.75;4990372;28;20053;-67
2022/06/06 09:43:40;;;;;;;9.40;3.20;;;;;;;21.17;56.12;101331.22;5012670;28;20480;-66
2022/06/06 09:46:12;;;;;;;5.45;3.90;;;;;;;20.30;57.13;101318.16;5012727;28;20145;-68
2022/06/06 09:49:20;;;;;;;4.13;3.67;;;;;;;20.68;57.90;101317.16;5016645;28;20045;-68
2022/06/06 09:52:23;;;;;;;4.05;3.67;;;;;;;20.67;55.42;101320.84;5023868;28;20048;-69
2022/06/06 10:01:09;;;;;;;4.85;2.60;;;;;;;20.94;55.61;101306.44;5009825;28;20037;-67
2022/06/06 10:04:03;;;;;;;2.70;2.50;;;;;;;20.91;53.26;101311.28;5019053;28;20036;-67
2022/06/06 10:07:05;;;;;;;4.28;2.67;;;;;;;20.90;57.12;101299.59;5014348;28;20041;-68
2022/06/06 10:09:33;;;;;;;3.08;2.70;;;;;;;21.00;55.59;101295.97;5004783;28;20041;-67
2022/06/06 10:12:34;;;;;;;2.63;2.40;;;;;;;20.68;57.85;101291.88;5011364;28;20813;-66
2022/06/06 10:15:30;;;;;;;2.58;2.38;;;;;;;20.81;58.18;101286.09;4969148;28;20049;-65
2022/06/06 10:18:10;;;;;;;2.95;2.50;;;;;;;21.38;56.56;101283.97;5012869;28;20048;-67
2022/06/06 10:21:01;;;;;;;5.15;2.60;;;;;;;20.56;58.51;101288.53;4997774;28;20038;-67
2022/06/06 10:23:48;;;;;;;4.22;2.60;;;;;;;20.77;58.34;101285.56;4992108;28;20557;-67
2022/06/06 10:26:19;;;;;;;4.90;2.30;;;;;;;21.68;56.09;101290.81;5013872;28;20618;-67
2022/06/06 10:28:58;;;;;;;2.87;2.60;;;;;;;21.35;58.14;101282.44;4639838;28;9999791;-67
2022/06/06 10:31:36;;;;;;;5.05;3.10;;;;;;;21.28;57.40;101289.44;5010336;28;20782;-67
2022/06/06 10:34:09;;;;;;;4.70;3.42;;;;;;;21.44;56.29;101289.63;5009346;28;20131;-67
2022/06/06 10:36:59;;;;;;;4.80;3.30;;;;;;;20.89;54.54;101291.63;4995616;28;20192;-65
2022/06/06 10:39:45;;;;;;;4.30;3.42;;;;;;;20.73;57.56;101294.13;5008392;28;20035;-68
2022/06/06 10:42:32;;;;;;;5.10;3.58;;;;;;;19.94;57.85;101286.50;4638491;28;10000489;-68
2022/06/06 10:45:14;;;;;;;4.45;3.60;;;;;;;20.37;56.41;101275.91;5009691;28;20037;-67
2022/06/06 10:48:09;;;;;;;6.13;3.65;;;;;;;21.19;53.61;101266.84;5009471;28;20049;-68
2022/06/06 10:54:33;;;;;;;3.85;3.40;;;;;;;22.63;54.86;101270.81;4665604;28;10000500;-67
2022/06/06 10:57:04;;;;;;;6.18;3.15;;;;;;;21.76;52.28;101269.16;4984058;28;20037;-67
2022/06/06 11:00:03;;;;;;;5.13;3.03;;;;;;;21.69;53.82;101266.25;5008217;28;20037;-66
2022/06/06 11:02:57;;;;;;;5.10;2.22;;;;;;;21.72;54.28;101262.34;5010986;28;20041;-68
2022/06/06 11:05:43;;;;;;;3.17;1.73;;;;;;;21.88;54.71;101262.44;5008769;28;20148;-67
2022/06/06 11:08:09;;;;;;;2.17;1.73;;;;;;;22.01;53.70;101255.75;5007571;28;20052;-68
2022/06/06 11:10:34;;;;;;;1.95;1.30;;;;;;;22.45;52.53;101254.63;5010519;28;20037;-68
2022/06/06 11:13:19;;;;;;;3.63;1.40;;;;;;;22.80;51.53;101241.81;5009963;28;20031;-68
2022/06/06 11:16:12;;;;;;;2.42;1.60;;;;;;;21.62;53.08;101254.31;5010310;28;20728;-68
2022/06/06 11:18:59;;;;;;;3.58;1.83;;;;;;;21.20;54.04;101257.69;5016881;28;20045;-68
2022/06/06 11:21:45;;;;;;;1.65;1.40;;;;;;;20.90;52.96;101260.78;5010506;28;20576;-68
2022/06/06 11:24:31;;;;;;;2.90;1.55;;;;;;;21.10;54.87;101256.06;5000160;28;20799;-67
2022/06/06 11:27:21;;;;;;;2.00;1.48;;;;;;;20.42;54.70;101259.19;5009785;28;20678;-68
2022/06/06 11:30:20;;;;;;;2.13;1.48;;;;;;;19.77;58.00;101269.16;5014019;28;20045;-68
2022/06/06 11:33:04;;;;;;;4.10;1.98;;;;;;;18.77;65.68;101281.13;5016752;28;20650;-67
2022/06/06 11:36:13;;;;;;;3.47;1.50;;;;;;;18.48;68.96;101289.13;5007906;28;20041;-68
2022/06/06 11:39:16;;;;;;;4.95;2.65;;;;;;;17.95;70.77;101293.88;4955340;28;20058;-67
2022/06/06 11:42:13;;;;;;;6.13;3.63;;;;;;;17.77;74.00;101282.81;4948854;28;20046;-67
2022/06/06 11:45:02;;;;;;;8.20;3.45;;;;;;;18.10;74.75;101290.69;4932770;28;20097;-67
2022/06/06 11:47:52;;;;;;;5.75;3.00;;;;;;;18.36;75.80;101280.28;4947768;28;20729;-67
2022/06/06 11:50:32;;;;;;;4.80;3.40;;;;;;;18.54;70.02;101282.31;4931525;28;20054;-67
2022/06/06 11:53:45;;;;;;;5.47;3.05;;;;;;;19.40;71.71;101278.88;4948750;28;20047;-67
2022/06/06 11:56:26;;;;;;;3.97;2.92;;;;;;;18.91;69.26;101271.75;4869835;29;20465;-67
2022/06/06 11:59:11;;;;;;;5.80;3.00;;;;;;;19.36;68.44;101272.03;4869801;29;20216;-67
2022/06/06 12:01:54;;;;;;;3.15;2.85;;;;;;;20.57;66.16;101259.56;4869819;29;20064;-67
2022/06/06 12:04:33;;;;;;;3.88;2.72;;;;;;;20.80;60.07;101254.59;4871040;29;20127;-68
2022/06/06 12:07:24;;;;;;;4.80;2.80;;;;;;;21.50;59.30;101247.44;4871857;29;20132;-67
2022/06/06 12:10:04;;;;;;;4.63;2.33;;;;;;;21.77;59.22;101243.72;4896326;29;20055;-67
2022/06/06 12:13:10;;;;;;;11.15;2.38;;;;;;;21.77;58.25;101235.56;4910854;29;20762;-67
2022/06/06 12:16:03;;;;;;;4.22;2.13;;;;;;;22.14;58.14;101234.44;4900955;29;20461;-68
2022/06/06 12:18:54;;;;;;;3.22;2.50;;;;;;;22.22;55.51;101224.47;4914370;29;20123;-67
2022/06/06 12:22:04;;;;;;;7.07;1.80;;;;;;;22.66;57.79;101224.25;4918207;29;20358;-67
2022/06/06 12:24:54;;;;;;;1.42;1.33;;;;;;;21.95;52.65;101221.94;4912574;29;20052;-67
2022/06/06 12:27:46;;;;;;;5.35;1.67;;;;;;;21.11;53.57;101227.94;4922298;29;20796;-67
2022/06/06 12:30:24;;;;;;;;;;;;;;;20.73;55.08;101220.97;4904804;29;20042;-65